Terminal Aerodrome Forecast
Issued by NWS Jackson, MS

Home | Current Version | Previous Version | Text Only | Print | Product List | Glossary On
Versions: 1 2 3 4 5 6 7 8 9 10 11 12
461
FTUS44 KJAN 262338
TAFGWO
TAF
KGWO 262338Z 2700/2724 10006KT P6SM VCSH SCT050 BKN150
     FM270100 13004KT P6SM FEW060 BKN150
     FM271000 14004KT 6SM BR BKN013
     FM271130 13004KT 6SM BR OVC008
     FM271500 16007KT 6SM BR VCSH OVC015
     FM271800 19005KT P6SM VCTS SCT025 BKN035CB=

USA.gov is the U.S. government's official web portal to all federal, state and local government web resources and services.